sensor_id;sensor_type;location;lat;lon;timestamp;pressure;altitude;pressure_sealevel;temperature;humidity
55675;BME280;41562;44.330;23.802;2022-12-07T00:01:46;100417.50;;;5.22;100.00
55675;BME280;41562;44.330;23.802;2022-12-07T00:04:18;100419.94;;;5.23;100.00
55675;BME280;41562;44.330;23.802;2022-12-07T00:06:55;100416.13;;;5.19;100.00
55675;BME280;41562;44.330;23.802;2022-12-07T00:09:22;100410.25;;;5.17;100.00
55675;BME280;41562;44.330;23.802;2022-12-07T00:11:59;100410.72;;;5.14;100.00
55675;BME280;41562;44.330;23.802;2022-12-07T00:14:33;100407.59;;;5.17;100.00
55675;BME280;41562;44.330;23.802;2022-12-07T00:17:00;100406.00;;;5.16;100.00
55675;BME280;41562;44.330;23.802;2022-12-07T00:19:31;100408.06;;;5.14;100.00
55675;BME280;41562;44.330;23.802;2022-12-07T00:22:00;100407.72;;;5.22;100.00
55675;BME280;41562;44.330;23.802;2022-12-07T00:24:33;100422.22;;;5.20;100.00
55675;BME280;41562;44.330;23.802;2022-12-07T00:27:06;100420.59;;;5.19;100.00
55675;BME280;41562;44.330;23.802;2022-12-07T00:29:37;100419.94;;;5.23;100.00
55675;BME280;41562;44.330;23.802;2022-12-07T00:32:15;100418.44;;;5.28;100.00
55675;BME280;41562;44.330;23.802;2022-12-07T00:34:48;100426.50;;;5.21;100.00
55675;BME280;41562;44.330;23.802;2022-12-07T00:37:22;100421.19;;;5.33;100.00
55675;BME280;41562;44.330;23.802;2022-12-07T00:39:49;100422.56;;;5.35;100.00
55675;BME280;41562;44.330;23.802;2022-12-07T00:42:19;100414.25;;;5.32;100.00
55675;BME280;41562;44.330;23.802;2022-12-07T00:44:50;100421.28;;;5.38;100.00
55675;BME280;41562;44.330;23.802;2022-12-07T00:47:17;100413.59;;;5.24;100.00
55675;BME280;41562;44.330;23.802;2022-12-07T00:49:51;100409.66;;;5.27;100.00
55675;BME280;41562;44.330;23.802;2022-12-07T00:52:19;100407.72;;;5.22;100.00
55675;BME280;41562;44.330;23.802;2022-12-07T00:54:52;100409.88;;;5.25;100.00
55675;BME280;41562;44.330;23.802;2022-12-07T00:57:22;100409.88;;;5.25;100.00
55675;BME280;41562;44.330;23.802;2022-12-07T00:59:52;100417.41;;;5.29;100.00
55675;BME280;41562;44.330;23.802;2022-12-07T01:02:25;100409.53;;;5.34;100.00
55675;BME280;41562;44.330;23.802;2022-12-07T01:04:56;100397.81;;;5.30;100.00
55675;BME280;41562;44.330;23.802;2022-12-07T01:07:29;100400.56;;;5.23;100.00
55675;BME280;41562;44.330;23.802;2022-12-07T01:09:57;100391.59;;;5.24;100.00
55675;BME280;41562;44.330;23.802;2022-12-07T01:12:34;100390.06;;;5.40;100.00
55675;BME280;41562;44.330;23.802;2022-12-07T01:15:04;100381.50;;;5.38;100.00
55675;BME280;41562;44.330;23.802;2022-12-07T01:17:38;100380.59;;;5.32;100.00
55675;BME280;41562;44.330;23.802;2022-12-07T01:20:08;100370.13;;;5.25;100.00
55675;BME280;41562;44.330;23.802;2022-12-07T01:22:41;100368.75;;;5.35;100.00
55675;BME280;41562;44.330;23.802;2022-12-07T01:25:12;100366.22;;;5.28;100.00
55675;BME280;41562;44.330;23.802;2022-12-07T01:27:41;100366.00;;;5.30;100.00
55675;BME280;41562;44.330;23.802;2022-12-07T01:30:10;100362.97;;;5.26;100.00
55675;BME280;41562;44.330;23.802;2022-12-07T01:32:41;100366.53;;;5.32;100.00
55675;BME280;41562;44.330;23.802;2022-12-07T01:35:17;100359.28;;;5.27;100.00
55675;BME280;41562;44.330;23.802;2022-12-07T01:37:50;100359.88;;;5.29;100.00
55675;BME280;41562;44.330;23.802;2022-12-07T01:40:20;100357.09;;;5.36;100.00
55675;BME280;41562;44.330;23.802;2022-12-07T01:42:54;100355.94;;;5.32;100.00
55675;BME280;41562;44.330;23.802;2022-12-07T01:45:39;100356.19;;;5.30;100.00
55675;BME280;41562;44.330;23.802;2022-12-07T01:48:08;100359.53;;;5.37;100.00
55675;BME280;41562;44.330;23.802;2022-12-07T01:50:43;100362.31;;;5.31;100.00
55675;BME280;41562;44.330;23.802;2022-12-07T01:53:19;100359.88;;;5.29;100.00
55675;BME280;41562;44.330;23.802;2022-12-07T01:55:53;100352.97;;;5.28;100.00
55675;BME280;41562;44.330;23.802;2022-12-07T01:58:28;100355.38;;;5.30;100.00
55675;BME280;41562;44.330;23.802;2022-12-07T02:01:03;100355.13;;;5.43;100.00
55675;BME280;41562;44.330;23.802;2022-12-07T02:03:42;100355.66;;;5.56;100.00
55675;BME280;41562;44.330;23.802;2022-12-07T02:06:16;100364.00;;;5.48;100.00
55675;BME280;41562;44.330;23.802;2022-12-07T02:08:48;100362.84;;;5.44;100.00
55675;BME280;41562;44.330;23.802;2022-12-07T02:11:21;100358.91;;;5.47;100.00
55675;BME280;41562;44.330;23.802;2022-12-07T02:13:52;100359.81;;;5.52;100.00
55675;BME280;41562;44.330;23.802;2022-12-07T02:16:38;100360.31;;;5.49;100.00
55675;BME280;41562;44.330;23.802;2022-12-07T02:21:54;100353.03;;;5.45;100.00
55675;BME280;41562;44.330;23.802;2022-12-07T02:30:14;100342.69;;;5.32;100.00
55675;BME280;41562;44.330;23.802;2022-12-07T02:32:52;100334.19;;;5.30;100.00
55675;BME280;41562;44.330;23.802;2022-12-07T02:38:40;100330.25;;;5.20;100.00
55675;BME280;41562;44.330;23.802;2022-12-07T02:41:33;100329.19;;;5.33;100.00
55675;BME280;41562;44.330;23.802;2022-12-07T02:44:12;100327.97;;;5.24;100.00
55675;BME280;41562;44.330;23.802;2022-12-07T02:46:43;100321.88;;;5.23;100.00
55675;BME280;41562;44.330;23.802;2022-12-07T02:49:18;100318.28;;;5.30;100.00
55675;BME280;41562;44.330;23.802;2022-12-07T02:51:52;100318.28;;;5.30;100.00
55675;BME280;41562;44.330;23.802;2022-12-07T02:54:23;100324.72;;;5.34;100.00
55675;BME280;41562;44.330;23.802;2022-12-07T03:00:13;100323.19;;;5.38;100.00
55675;BME280;41562;44.330;23.802;2022-12-07T03:03:04;100314.09;;;5.34;100.00
55675;BME280;41562;44.330;23.802;2022-12-07T03:18:53;100296.31;;;5.46;100.00
55675;BME280;41562;44.330;23.802;2022-12-07T03:21:25;100294.97;;;5.32;100.00
55675;BME280;41562;44.330;23.802;2022-12-07T03:23:58;100292.91;;;5.34;100.00
55675;BME280;41562;44.330;23.802;2022-12-07T03:26:34;100297.06;;;5.30;100.00
55675;BME280;41562;44.330;23.802;2022-12-07T03:29:09;100295.69;;;5.27;100.00
55675;BME280;41562;44.330;23.802;2022-12-07T03:31:51;100300.50;;;5.42;100.00
55675;BME280;41562;44.330;23.802;2022-12-07T03:34:45;100298.19;;;5.34;100.00
55675;BME280;41562;44.330;23.802;2022-12-07T03:37:23;100293.69;;;5.34;100.00
55675;BME280;41562;44.330;23.802;2022-12-07T03:42:26;100301.53;;;5.41;100.00
55675;BME280;41562;44.330;23.802;2022-12-07T03:45:03;100301.84;;;5.56;100.00
55675;BME280;41562;44.330;23.802;2022-12-07T03:47:48;100310.91;;;5.60;100.00
55675;BME280;41562;44.330;23.802;2022-12-07T03:50:53;100312.03;;;5.64;100.00
55675;BME280;41562;44.330;23.802;2022-12-07T03:53:44;100312.13;;;5.69;100.00
55675;BME280;41562;44.330;23.802;2022-12-07T03:56:16;100304.94;;;5.53;100.00
55675;BME280;41562;44.330;23.802;2022-12-07T03:58:44;100302.91;;;5.43;100.00
55675;BME280;41562;44.330;23.802;2022-12-07T04:01:15;100304.84;;;5.48;100.00
55675;BME280;41562;44.330;23.802;2022-12-07T04:03:45;100297.94;;;5.47;100.00
55675;BME280;41562;44.330;23.802;2022-12-07T04:06:16;100292.41;;;5.48;100.00
55675;BME280;41562;44.330;23.802;2022-12-07T04:08:44;100283.41;;;5.38;100.00
55675;BME280;41562;44.330;23.802;2022-12-07T04:11:17;100285.16;;;5.32;100.00
55675;BME280;41562;44.330;23.802;2022-12-07T04:13:51;100280.50;;;5.22;100.00
55675;BME280;41562;44.330;23.802;2022-12-07T04:16:22;100275.53;;;5.14;100.00
55675;BME280;41562;44.330;23.802;2022-12-07T04:18:49;100278.88;;;5.21;100.00
55675;BME280;41562;44.330;23.802;2022-12-07T04:21:17;100272.03;;;5.25;100.00
55675;BME280;41562;44.330;23.802;2022-12-07T04:23:51;100275.59;;;5.31;100.00
55675;BME280;41562;44.330;23.802;2022-12-07T04:26:24;100273.31;;;5.35;100.00
55675;BME280;41562;44.330;23.802;2022-12-07T04:28:54;100266.97;;;5.36;100.00
55675;BME280;41562;44.330;23.802;2022-12-07T04:31:22;100266.72;;;5.37;100.00
55675;BME280;41562;44.330;23.802;2022-12-07T04:33:50;100271.78;;;5.39;100.00
55675;BME280;41562;44.330;23.802;2022-12-07T04:36:17;100273.75;;;5.32;100.00
55675;BME280;41562;44.330;23.802;2022-12-07T04:38:45;100264.19;;;6.71;100.00
55675;BME280;41562;44.330;23.802;2022-12-07T04:41:19;100288.56;;;10.73;90.94
55675;BME280;41562;44.330;23.802;2022-12-07T04:43:50;100283.28;;;11.32;84.54
55675;BME280;41562;44.330;23.802;2022-12-07T04:46:23;100290.22;;;11.38;88.08
55675;BME280;41562;44.330;23.802;2022-12-07T04:48:52;100299.06;;;12.32;82.51
55675;BME280;41562;44.330;23.802;2022-12-07T04:51:26;100289.16;;;12.85;81.92
55675;BME280;41562;44.330;23.802;2022-12-07T04:54:05;100294.06;;;12.20;78.32
55675;BME280;41562;44.330;23.802;2022-12-07T04:56:39;100296.69;;;11.37;83.04
55675;BME280;41562;44.330;23.802;2022-12-07T04:59:11;100301.41;;;12.04;83.44
55675;BME280;41562;44.330;23.802;2022-12-07T05:01:46;100304.16;;;11.35;80.77
55675;BME280;41562;44.330;23.802;2022-12-07T05:04:17;100305.13;;;10.75;81.92
55675;BME280;41562;44.330;23.802;2022-12-07T05:06:54;100300.63;;;10.55;90.91
55675;BME280;41562;44.330;23.802;2022-12-07T05:09:25;100306.75;;;10.15;88.39
55675;BME280;41562;44.330;23.802;2022-12-07T05:11:53;100307.56;;;10.51;87.86
55675;BME280;41562;44.330;23.802;2022-12-07T05:14:21;100301.47;;;9.27;86.61
55675;BME280;41562;44.330;23.802;2022-12-07T05:16:52;100297.88;;;7.25;99.10
55675;BME280;41562;44.330;23.802;2022-12-07T05:19:23;100285.47;;;6.54;100.00
55675;BME280;41562;44.330;23.802;2022-12-07T05:21:53;100278.81;;;6.35;100.00
55675;BME280;41562;44.330;23.802;2022-12-07T05:24:24;100280.56;;;5.96;100.00
55675;BME280;41562;44.330;23.802;2022-12-07T05:27:02;100290.97;;;5.86;100.00
55675;BME280;41562;44.330;23.802;2022-12-07T05:29:30;100286.81;;;5.90;100.00
55675;BME280;41562;44.330;23.802;2022-12-07T05:32:06;100276.78;;;5.92;100.00
55675;BME280;41562;44.330;23.802;2022-12-07T05:34:38;100258.44;;;5.62;100.00
55675;BME280;41562;44.330;23.802;2022-12-07T05:37:08;100260.81;;;5.47;100.00
55675;BME280;41562;44.330;23.802;2022-12-07T05:39:46;100258.16;;;5.47;100.00
55675;BME280;41562;44.330;23.802;2022-12-07T05:42:17;100250.09;;;5.42;100.00
55675;BME280;41562;44.330;23.802;2022-12-07T05:44:50;100259.78;;;5.48;100.00
55675;BME280;41562;44.330;23.802;2022-12-07T05:47:18;100259.41;;;5.56;100.00
55675;BME280;41562;44.330;23.802;2022-12-07T05:49:51;100262.41;;;5.48;100.00
55675;BME280;41562;44.330;23.802;2022-12-07T05:52:22;100262.88;;;5.45;100.00
55675;BME280;41562;44.330;23.802;2022-12-07T05:54:52;100268.47;;;5.60;100.00
55675;BME280;41562;44.330;23.802;2022-12-07T05:57:22;100274.44;;;5.67;100.00
55675;BME280;41562;44.330;23.802;2022-12-07T05:59:53;100285.44;;;5.59;100.00
55675;BME280;41562;44.330;23.802;2022-12-07T06:02:24;100263.75;;;5.62;100.00
55675;BME280;41562;44.330;23.802;2022-12-07T06:04:55;100261.13;;;5.50;100.00
55675;BME280;41562;44.330;23.802;2022-12-07T06:07:23;100268.25;;;5.61;100.00
55675;BME280;41562;44.330;23.802;2022-12-07T06:09:58;100272.41;;;5.57;100.00
55675;BME280;41562;44.330;23.802;2022-12-07T06:12:39;100272.31;;;5.52;100.00
55675;BME280;41562;44.330;23.802;2022-12-07T06:15:14;100274.66;;;5.49;100.00
55675;BME280;41562;44.330;23.802;2022-12-07T06:17:58;100276.25;;;5.50;100.00
55675;BME280;41562;44.330;23.802;2022-12-07T06:20:32;100274.06;;;5.47;100.00
55675;BME280;41562;44.330;23.802;2022-12-07T06:23:06;100272.69;;;5.44;100.00
55675;BME280;41562;44.330;23.802;2022-12-07T06:25:45;100277.03;;;5.50;100.00
55675;BME280;41562;44.330;23.802;2022-12-07T06:28:18;100275.78;;;5.53;100.00
55675;BME280;41562;44.330;23.802;2022-12-07T06:30:59;100281.88;;;5.13;100.00
55675;BME280;41562;44.330;23.802;2022-12-07T06:33:27;100288.88;;;5.19;100.00
55675;BME280;41562;44.330;23.802;2022-12-07T06:35:58;100290.66;;;5.54;100.00
55675;BME280;41562;44.330;23.802;2022-12-07T06:38:32;100278.69;;;5.40;100.00
55675;BME280;41562;44.330;23.802;2022-12-07T06:41:03;100280.19;;;5.47;100.00
55675;BME280;41562;44.330;23.802;2022-12-07T06:43:43;100281.69;;;5.43;100.00
55675;BME280;41562;44.330;23.802;2022-12-07T06:46:14;100280.88;;;5.43;100.00
55675;BME280;41562;44.330;23.802;2022-12-07T06:48:46;100287.47;;;5.40;100.00
55675;BME280;41562;44.330;23.802;2022-12-07T06:51:16;100287.22;;;5.42;100.00
55675;BME280;41562;44.330;23.802;2022-12-07T06:53:45;100288.59;;;5.44;100.00
55675;BME280;41562;44.330;23.802;2022-12-07T06:56:21;100294.00;;;5.49;100.00
55675;BME280;41562;44.330;23.802;2022-12-07T06:58:52;100290.97;;;5.57;100.00
55675;BME280;41562;44.330;23.802;2022-12-07T07:01:29;100297.69;;;5.48;100.00
55675;BME280;41562;44.330;23.802;2022-12-07T07:04:02;100294.25;;;5.48;100.00
55675;BME280;41562;44.330;23.802;2022-12-07T07:06:36;100298.38;;;5.55;100.00
55675;BME280;41562;44.330;23.802;2022-12-07T07:09:10;100306.72;;;5.64;100.00
55675;BME280;41562;44.330;23.802;2022-12-07T07:11:37;100306.06;;;5.57;100.00
55675;BME280;41562;44.330;23.802;2022-12-07T07:14:11;100311.28;;;5.52;100.00
55675;BME280;41562;44.330;23.802;2022-12-07T07:16:50;100312.56;;;5.49;100.00
55675;BME280;41562;44.330;23.802;2022-12-07T07:19:23;100308.53;;;5.47;100.00
55675;BME280;41562;44.330;23.802;2022-12-07T07:21:54;100314.41;;;5.49;100.00
55675;BME280;41562;44.330;23.802;2022-12-07T07:24:31;100306.47;;;5.49;100.00
55675;BME280;41562;44.330;23.802;2022-12-07T07:26:58;100302.28;;;5.53;100.00
55675;BME280;41562;44.330;23.802;2022-12-07T07:29:32;100298.97;;;5.46;100.00
55675;BME280;41562;44.330;23.802;2022-12-07T07:32:13;100294.91;;;5.55;100.00
55675;BME280;41562;44.330;23.802;2022-12-07T07:34:41;100301.97;;;5.49;100.00
55675;BME280;41562;44.330;23.802;2022-12-07T07:37:15;100305.94;;;5.63;100.00
55675;BME280;41562;44.330;23.802;2022-12-07T07:39:48;100297.47;;;5.50;100.00
55675;BME280;41562;44.330;23.802;2022-12-07T07:42:25;100300.22;;;5.55;100.00
55675;BME280;41562;44.330;23.802;2022-12-07T07:44:52;100303.91;;;5.54;100.00
55675;BME280;41562;44.330;23.802;2022-12-07T07:47:20;100297.31;;;5.56;100.00
55675;BME280;41562;44.330;23.802;2022-12-07T07:49:50;100306.81;;;5.69;100.00
55675;BME280;41562;44.330;23.802;2022-12-07T07:52:20;100304.47;;;5.56;100.00
55675;BME280;41562;44.330;23.802;2022-12-07T07:54:48;100294.25;;;5.48;100.00
55675;BME280;41562;44.330;23.802;2022-12-07T07:57:18;100301.03;;;5.55;100.00
55675;BME280;41562;44.330;23.802;2022-12-07T07:59:51;100293.88;;;5.56;100.00
55675;BME280;41562;44.330;23.802;2022-12-07T08:02:24;100300.66;;;5.52;100.00
55675;BME280;41562;44.330;23.802;2022-12-07T08:04:59;100304.00;;;5.59;100.00
55675;BME280;41562;44.330;23.802;2022-12-07T08:07:32;100302.78;;;5.50;100.00
55675;BME280;41562;44.330;23.802;2022-12-07T08:10:03;100299.06;;;5.51;100.00
55675;BME280;41562;44.330;23.802;2022-12-07T08:12:36;100305.66;;;5.48;100.00
55675;BME280;41562;44.330;23.802;2022-12-07T08:15:08;100302.44;;;5.46;100.00
55675;BME280;41562;44.330;23.802;2022-12-07T08:17:40;100297.94;;;5.47;100.00
55675;BME280;41562;44.330;23.802;2022-12-07T08:20:16;100302.59;;;5.56;100.00
55675;BME280;41562;44.330;23.802;2022-12-07T08:22:44;100302.78;;;5.50;100.00
55675;BME280;41562;44.330;23.802;2022-12-07T08:25:15;100295.63;;;5.39;100.00
55675;BME280;41562;44.330;23.802;2022-12-07T08:27:51;100302.78;;;5.50;100.00
55675;BME280;41562;44.330;23.802;2022-12-07T08:30:27;100297.75;;;5.37;100.00
55675;BME280;41562;44.330;23.802;2022-12-07T08:33:06;100303.50;;;5.34;100.00
55675;BME280;41562;44.330;23.802;2022-12-07T08:35:41;100303.97;;;5.31;100.00
55675;BME280;41562;44.330;23.802;2022-12-07T08:38:11;100308.91;;;5.39;100.00
55675;BME280;41562;44.330;23.802;2022-12-07T08:40:45;100310.72;;;5.50;100.00
55675;BME280;41562;44.330;23.802;2022-12-07T08:43:18;100305.44;;;5.38;100.00
55675;BME280;41562;44.330;23.802;2022-12-07T08:46:05;100296.03;;;5.31;100.00
55675;BME280;41562;44.330;23.802;2022-12-07T08:48:49;100294.69;;;5.05;100.00
55675;BME280;41562;44.330;23.802;2022-12-07T08:51:17;100294.34;;;5.01;100.00
55675;BME280;41562;44.330;23.802;2022-12-07T08:53:44;100292.97;;;5.10;100.00
55675;BME280;41562;44.330;23.802;2022-12-07T08:56:15;100297.25;;;5.40;100.00
55675;BME280;41562;44.330;23.802;2022-12-07T08:58:53;100293.03;;;5.27;100.00
55675;BME280;41562;44.330;23.802;2022-12-07T09:01:21;100283.03;;;5.17;100.00
55675;BME280;41562;44.330;23.802;2022-12-07T09:03:49;100283.47;;;5.26;100.00
55675;BME280;41562;44.330;23.802;2022-12-07T09:06:26;100290.34;;;5.39;100.00
55675;BME280;41562;44.330;23.802;2022-12-07T09:09:06;100276.53;;;5.25;100.00
55675;BME280;41562;44.330;23.802;2022-12-07T09:11:34;100272.72;;;5.33;100.00
55675;BME280;41562;44.330;23.802;2022-12-07T09:14:11;100274.34;;;5.34;100.00
55675;BME280;41562;44.330;23.802;2022-12-07T09:16:45;100264.72;;;5.16;100.00
55675;BME280;41562;44.330;23.802;2022-12-07T09:19:18;100269.22;;;5.15;100.00
55675;BME280;41562;44.330;23.802;2022-12-07T09:21:47;100265.81;;;5.32;100.00
55675;BME280;41562;44.330;23.802;2022-12-07T09:24:18;100260.28;;;5.33;100.00
55675;BME280;41562;44.330;23.802;2022-12-07T09:26:49;100260.03;;;5.35;100.00
55675;BME280;41562;44.330;23.802;2022-12-07T09:29:22;100261.94;;;5.51;100.00
55675;BME280;41562;44.330;23.802;2022-12-07T09:31:58;100267.50;;;5.38;100.00
55675;BME280;41562;44.330;23.802;2022-12-07T09:34:33;100255.38;;;5.13;100.00
55675;BME280;41562;44.330;23.802;2022-12-07T09:37:04;100254.69;;;5.18;100.00
55675;BME280;41562;44.330;23.802;2022-12-07T09:39:37;100249.88;;;5.43;100.00
55675;BME280;41562;44.330;23.802;2022-12-07T09:42:05;100245.34;;;5.44;100.00
55675;BME280;41562;44.330;23.802;2022-12-07T09:44:39;100242.88;;;5.25;100.00
55675;BME280;41562;44.330;23.802;2022-12-07T09:47:10;100229.09;;;5.23;100.00
55675;BME280;41562;44.330;23.802;2022-12-07T09:55:16;100220.56;;;5.21;100.00
55675;BME280;41562;44.330;23.802;2022-12-07T09:57:50;100213.66;;;5.20;100.00
55675;BME280;41562;44.330;23.802;2022-12-07T10:00:26;100217.75;;;5.56;100.00
55675;BME280;41562;44.330;23.802;2022-12-07T10:02:59;100215.25;;;5.21;100.00
55675;BME280;41562;44.330;23.802;2022-12-07T10:05:35;100202.81;;;5.22;100.00
55675;BME280;41562;44.330;23.802;2022-12-07T10:08:10;100199.59;;;5.20;100.00
55675;BME280;41562;44.330;23.802;2022-12-07T10:10:41;100211.28;;;5.36;100.00
55675;BME280;41562;44.330;23.802;2022-12-07T10:13:14;100201.78;;;5.23;100.00
55675;BME280;41562;44.330;23.802;2022-12-07T10:18:41;100192.28;;;5.27;100.00
55675;BME280;41562;44.330;23.802;2022-12-07T10:24:03;100194.81;;;5.34;100.00
55675;BME280;41562;44.330;23.802;2022-12-07T10:26:32;100191.69;;;5.37;100.00
55675;BME280;41562;44.330;23.802;2022-12-07T10:31:59;100199.34;;;5.50;100.00
55675;BME280;41562;44.330;23.802;2022-12-07T10:34:33;100186.03;;;5.33;100.00
55675;BME280;41562;44.330;23.802;2022-12-07T10:37:19;100173.22;;;5.13;100.00
55675;BME280;41562;44.330;23.802;2022-12-07T10:39:57;100172.63;;;5.23;100.00
55675;BME280;41562;44.330;23.802;2022-12-07T10:42:30;100168.66;;;5.25;100.00
55675;BME280;41562;44.330;23.802;2022-12-07T10:45:17;100164.22;;;5.43;100.00
55675;BME280;41562;44.330;23.802;2022-12-07T10:51:17;100165.31;;;5.75;100.00
55675;BME280;41562;44.330;23.802;2022-12-07T10:54:28;100161.69;;;5.81;100.00
55675;BME280;41562;44.330;23.802;2022-12-07T10:57:07;100163.84;;;5.84;100.00
55675;BME280;41562;44.330;23.802;2022-12-07T11:11:36;100148.09;;;5.78;100.00
55675;BME280;41562;44.330;23.802;2022-12-07T11:14:26;100141.47;;;5.47;100.00
55675;BME280;41562;44.330;23.802;2022-12-07T11:17:00;100140.13;;;5.61;100.00
55675;BME280;41562;44.330;23.802;2022-12-07T11:22:24;100134.19;;;5.71;100.00
55675;BME280;41562;44.330;23.802;2022-12-07T11:25:04;100128.25;;;5.97;100.00
55675;BME280;41562;44.330;23.802;2022-12-07T11:30:48;100118.97;;;5.83;100.00
55675;BME280;41562;44.330;23.802;2022-12-07T11:33:32;100117.38;;;5.65;100.00
55675;BME280;41562;44.330;23.802;2022-12-07T12:57:37;100103.50;;;5.91;100.00
55675;BME280;41562;44.330;23.802;2022-12-07T13:03:28;100104.84;;;5.77;100.00
55675;BME280;41562;44.330;23.802;2022-12-07T13:08:59;100098.41;;;5.90;100.00
55675;BME280;41562;44.330;23.802;2022-12-07T13:11:44;100100.59;;;5.93;100.00
55675;BME280;41562;44.330;23.802;2022-12-07T13:17:59;100099.78;;;5.92;100.00
55675;BME280;41562;44.330;23.802;2022-12-07T13:20:08;100105.75;;;5.99;100.00
55675;BME280;41562;44.330;23.802;2022-12-07T13:22:49;100106.84;;;6.03;100.00
55675;BME280;41562;44.330;23.802;2022-12-07T13:28:20;100108.16;;;7.79;100.00
55675;BME280;41562;44.330;23.802;2022-12-07T13:33:45;100110.84;;;6.66;100.00
55675;BME280;41562;44.330;23.802;2022-12-07T13:36:29;100105.91;;;6.53;100.00
55675;BME280;41562;44.330;23.802;2022-12-07T13:39:22;100103.50;;;6.30;100.00
55675;BME280;41562;44.330;23.802;2022-12-07T13:42:07;100108.66;;;6.20;100.00
55675;BME280;41562;44.330;23.802;2022-12-07T13:44:50;100095.88;;;6.17;100.00
55675;BME280;41562;44.330;23.802;2022-12-07T13:47:58;100098.47;;;6.12;100.00
55675;BME280;41562;44.330;23.802;2022-12-07T13:50:30;100082.56;;;6.12;100.00
55675;BME280;41562;44.330;23.802;2022-12-07T13:53:13;100085.63;;;6.03;100.00
55675;BME280;41562;44.330;23.802;2022-12-07T13:55:50;100086.66;;;6.02;100.00
55675;BME280;41562;44.330;23.802;2022-12-07T13:58:29;100086.72;;;6.07;100.00
55675;BME280;41562;44.330;23.802;2022-12-07T14:01:05;100092.59;;;6.10;100.00
55675;BME280;41562;44.330;23.802;2022-12-07T14:03:39;100090.56;;;6.17;100.00
55675;BME280;41562;44.330;23.802;2022-12-07T14:06:27;100080.31;;;6.03;100.00
55675;BME280;41562;44.330;23.802;2022-12-07T14:11:54;100083.53;;;6.05;100.00
55675;BME280;41562;44.330;23.802;2022-12-07T14:14:31;100083.03;;;6.09;100.00
55675;BME280;41562;44.330;23.802;2022-12-07T14:17:18;100090.34;;;6.18;100.00
55675;BME280;41562;44.330;23.802;2022-12-07T14:19:57;100085.38;;;6.27;100.00
55675;BME280;41562;44.330;23.802;2022-12-07T14:22:34;100088.50;;;6.19;100.00
55675;BME280;41562;44.330;23.802;2022-12-07T14:25:15;100094.84;;;6.18;100.00
55675;BME280;41562;44.330;23.802;2022-12-07T14:27:57;100077.88;;;6.19;100.00
55675;BME280;41562;44.330;23.802;2022-12-07T14:33:27;100081.16;;;6.26;100.00
55675;BME280;41562;44.330;23.802;2022-12-07T14:35:58;100080.94;;;6.11;100.00
55675;BME280;41562;44.330;23.802;2022-12-07T14:38:29;100086.25;;;6.11;100.00
55675;BME280;41562;44.330;23.802;2022-12-07T14:41:07;100073.59;;;6.18;100.00
55675;BME280;41562;44.330;23.802;2022-12-07T14:43:39;100070.44;;;6.21;100.00
55675;BME280;41562;44.330;23.802;2022-12-07T14:46:32;100078.22;;;6.05;100.00
55675;BME280;41562;44.330;23.802;2022-12-07T14:49:09;100074.75;;;6.05;100.00
55675;BME280;41562;44.330;23.802;2022-12-07T14:52:15;100072.28;;;5.98;100.00
55675;BME280;41562;44.330;23.802;2022-12-07T14:55:22;100060.53;;;5.94;100.00
55675;BME280;41562;44.330;23.802;2022-12-07T14:57:51;100070.59;;;5.92;100.00
55675;BME280;41562;44.330;23.802;2022-12-07T15:00:24;100073.41;;;5.86;100.00
55675;BME280;41562;44.330;23.802;2022-12-07T15:02:58;100078.81;;;5.91;100.00
55675;BME280;41562;44.330;23.802;2022-12-07T15:05:31;100077.59;;;5.98;100.00
55675;BME280;41562;44.330;23.802;2022-12-07T15:08:05;100076.78;;;5.98;100.00
55675;BME280;41562;44.330;23.802;2022-12-07T15:10:40;100074.88;;;5.93;100.00
55675;BME280;41562;44.330;23.802;2022-12-07T15:13:11;100076.78;;;5.98;100.00
55675;BME280;41562;44.330;23.802;2022-12-07T15:15:42;100083.03;;;6.09;100.00
55675;BME280;41562;44.330;23.802;2022-12-07T15:18:16;100088.28;;;6.03;100.00
55675;BME280;41562;44.330;23.802;2022-12-07T15:20:47;100091.44;;;6.00;100.00
55675;BME280;41562;44.330;23.802;2022-12-07T15:23:26;100075.63;;;6.11;100.00
55675;BME280;41562;44.330;23.802;2022-12-07T15:25:58;100074.03;;;6.10;100.00
55675;BME280;41562;44.330;23.802;2022-12-07T15:28:27;100095.94;;;6.00;100.00
55675;BME280;41562;44.330;23.802;2022-12-07T15:31:10;100084.34;;;6.06;100.00
55675;BME280;41562;44.330;23.802;2022-12-07T15:34:07;100086.25;;;6.11;100.00
55675;BME280;41562;44.330;23.802;2022-12-07T15:36:38;100086.88;;;6.18;100.00
55675;BME280;41562;44.330;23.802;2022-12-07T15:39:09;100092.38;;;6.11;100.00
55675;BME280;41562;44.330;23.802;2022-12-07T15:41:47;100077.50;;;6.32;100.00
55675;BME280;41562;44.330;23.802;2022-12-07T15:44:16;100085.50;;;6.15;100.00
55675;BME280;41562;44.330;23.802;2022-12-07T15:46:44;100077.75;;;5.92;100.00
55675;BME280;41562;44.330;23.802;2022-12-07T15:49:17;100081.28;;;5.97;100.00
55675;BME280;41562;44.330;23.802;2022-12-07T15:51:54;100083.06;;;5.92;100.00
55675;BME280;41562;44.330;23.802;2022-12-07T15:54:26;100081.47;;;5.91;100.00
55675;BME280;41562;44.330;23.802;2022-12-07T15:56:59;100085.31;;;6.00;100.00
55675;BME280;41562;44.330;23.802;2022-12-07T15:59:29;100077.72;;;6.09;100.00
55675;BME280;41562;44.330;23.802;2022-12-07T16:02:03;100084.63;;;6.10;100.00
55675;BME280;41562;44.330;23.802;2022-12-07T16:04:40;100086.13;;;6.00;100.00
55675;BME280;41562;44.330;23.802;2022-12-07T16:07:12;100100.91;;;5.96;100.00